Terminal Aerodrome Forecast
Issued by NWS

Home | Current Version | Previous Version | Text Only | Print | Product List | Glossary On
Versions: 1 2 3 4 5 6 7 8 9 10 11 12 13 14 15
000
FTUS41 KPBZ 281830 AAA
TAFBVI
TAF AMD
KBVI 281830Z 2819/2918 21004KT P6SM -SHRA BKN045
     FM290300 00000KT 6SM BR OVC040
     FM290500 00000KT 5SM BR OVC100
     FM290900 00000KT 2SM BR OVC015
     FM291400 33004KT P6SM BKN045=

USA.gov is the U.S. government's official web portal to all federal, state and local government web resources and services.